sensor_id;sensor_type;location;lat;lon;timestamp;P1;durP1;ratioP1;P2;durP2;ratioP2
80725;SDS011;70113;59.928;10.878;2023-07-08T00:02:11;3.10;;;1.60;;
80725;SDS011;70113;59.928;10.878;2023-07-08T00:04:38;4.75;;;1.92;;
80725;SDS011;70113;59.928;10.878;2023-07-08T00:07:05;4.60;;;1.70;;
80725;SDS011;70113;59.928;10.878;2023-07-08T00:09:36;3.38;;;1.80;;
80725;SDS011;70113;59.928;10.878;2023-07-08T00:12:01;6.03;;;1.80;;
80725;SDS011;70113;59.928;10.878;2023-07-08T00:14:29;4.72;;;1.60;;
80725;SDS011;70113;59.928;10.878;2023-07-08T00:16:55;3.15;;;1.30;;
80725;SDS011;70113;59.928;10.878;2023-07-08T00:19:21;2.85;;;1.42;;
80725;SDS011;70113;59.928;10.878;2023-07-08T00:21:49;5.28;;;1.88;;
80725;SDS011;70113;59.928;10.878;2023-07-08T00:24:17;4.93;;;1.50;;
80725;SDS011;70113;59.928;10.878;2023-07-08T00:26:42;4.93;;;1.63;;
80725;SDS011;70113;59.928;10.878;2023-07-08T00:29:09;4.15;;;1.65;;
80725;SDS011;70113;59.928;10.878;2023-07-08T00:31:37;3.97;;;1.33;;
80725;SDS011;70113;59.928;10.878;2023-07-08T00:34:03;3.20;;;1.60;;
80725;SDS011;70113;59.928;10.878;2023-07-08T00:36:28;4.05;;;1.63;;
80725;SDS011;70113;59.928;10.878;2023-07-08T00:38:56;3.47;;;1.27;;
80725;SDS011;70113;59.928;10.878;2023-07-08T00:41:35;3.58;;;1.27;;
80725;SDS011;70113;59.928;10.878;2023-07-08T00:44:05;3.08;;;1.33;;
80725;SDS011;70113;59.928;10.878;2023-07-08T00:46:31;2.60;;;1.27;;
80725;SDS011;70113;59.928;10.878;2023-07-08T00:51:40;3.53;;;1.40;;
80725;SDS011;70113;59.928;10.878;2023-07-08T00:54:10;3.17;;;1.33;;
80725;SDS011;70113;59.928;10.878;2023-07-08T00:59:32;3.75;;;1.55;;
80725;SDS011;70113;59.928;10.878;2023-07-08T01:02:03;3.13;;;1.30;;
80725;SDS011;70113;59.928;10.878;2023-07-08T01:04:33;2.90;;;1.52;;
80725;SDS011;70113;59.928;10.878;2023-07-08T01:07:07;4.82;;;1.52;;
80725;SDS011;70113;59.928;10.878;2023-07-08T01:09:40;4.57;;;1.27;;
80725;SDS011;70113;59.928;10.878;2023-07-08T01:12:10;3.08;;;1.48;;
80725;SDS011;70113;59.928;10.878;2023-07-08T01:14:40;3.20;;;1.50;;
80725;SDS011;70113;59.928;10.878;2023-07-08T01:17:08;5.63;;;1.63;;
80725;SDS011;70113;59.928;10.878;2023-07-08T01:19:40;4.55;;;1.75;;
80725;SDS011;70113;59.928;10.878;2023-07-08T01:22:06;4.20;;;1.40;;
80725;SDS011;70113;59.928;10.878;2023-07-08T01:24:34;3.00;;;1.33;;
80725;SDS011;70113;59.928;10.878;2023-07-08T01:27:02;4.15;;;1.42;;
80725;SDS011;70113;59.928;10.878;2023-07-08T01:29:31;3.97;;;1.17;;
80725;SDS011;70113;59.928;10.878;2023-07-08T01:31:57;3.10;;;1.42;;
80725;SDS011;70113;59.928;10.878;2023-07-08T01:34:24;3.65;;;1.30;;
80725;SDS011;70113;59.928;10.878;2023-07-08T01:36:52;4.15;;;1.73;;
80725;SDS011;70113;59.928;10.878;2023-07-08T01:39:21;4.00;;;1.48;;
80725;SDS011;70113;59.928;10.878;2023-07-08T01:41:48;2.67;;;1.33;;
80725;SDS011;70113;59.928;10.878;2023-07-08T01:46:52;4.10;;;1.73;;
80725;SDS011;70113;59.928;10.878;2023-07-08T01:49:21;3.33;;;1.42;;
80725;SDS011;70113;59.928;10.878;2023-07-08T01:51:47;6.82;;;1.40;;
80725;SDS011;70113;59.928;10.878;2023-07-08T01:54:15;3.60;;;1.50;;
80725;SDS011;70113;59.928;10.878;2023-07-08T01:56:40;3.08;;;1.63;;
80725;SDS011;70113;59.928;10.878;2023-07-08T01:59:06;3.33;;;1.52;;
80725;SDS011;70113;59.928;10.878;2023-07-08T02:01:32;3.58;;;1.63;;
80725;SDS011;70113;59.928;10.878;2023-07-08T02:03:57;3.15;;;1.50;;
80725;SDS011;70113;59.928;10.878;2023-07-08T02:06:23;2.58;;;1.27;;
80725;SDS011;70113;59.928;10.878;2023-07-08T02:08:49;5.78;;;1.50;;
80725;SDS011;70113;59.928;10.878;2023-07-08T02:11:16;2.58;;;1.23;;
80725;SDS011;70113;59.928;10.878;2023-07-08T02:13:42;3.17;;;1.60;;
80725;SDS011;70113;59.928;10.878;2023-07-08T02:16:07;2.92;;;1.27;;
80725;SDS011;70113;59.928;10.878;2023-07-08T02:18:33;4.45;;;1.38;;
80725;SDS011;70113;59.928;10.878;2023-07-08T02:20:59;6.00;;;1.55;;
80725;SDS011;70113;59.928;10.878;2023-07-08T02:23:25;2.25;;;1.23;;
80725;SDS011;70113;59.928;10.878;2023-07-08T02:25:51;3.13;;;1.50;;
80725;SDS011;70113;59.928;10.878;2023-07-08T02:28:18;3.22;;;1.58;;
80725;SDS011;70113;59.928;10.878;2023-07-08T02:30:44;4.28;;;1.58;;
80725;SDS011;70113;59.928;10.878;2023-07-08T02:33:12;3.13;;;1.50;;
80725;SDS011;70113;59.928;10.878;2023-07-08T02:35:39;3.58;;;1.73;;
80725;SDS011;70113;59.928;10.878;2023-07-08T02:38:06;3.22;;;1.63;;
80725;SDS011;70113;59.928;10.878;2023-07-08T02:40:31;6.00;;;1.73;;
80725;SDS011;70113;59.928;10.878;2023-07-08T02:42:57;4.55;;;1.55;;
80725;SDS011;70113;59.928;10.878;2023-07-08T02:45:22;4.78;;;1.80;;
80725;SDS011;70113;59.928;10.878;2023-07-08T02:47:48;2.55;;;1.33;;
80725;SDS011;70113;59.928;10.878;2023-07-08T02:50:14;4.78;;;1.60;;
80725;SDS011;70113;59.928;10.878;2023-07-08T02:52:39;2.58;;;1.45;;
80725;SDS011;70113;59.928;10.878;2023-07-08T02:55:05;3.67;;;1.48;;
80725;SDS011;70113;59.928;10.878;2023-07-08T02:57:31;4.43;;;1.60;;
80725;SDS011;70113;59.928;10.878;2023-07-08T02:59:57;2.35;;;1.42;;
80725;SDS011;70113;59.928;10.878;2023-07-08T03:02:23;3.85;;;1.50;;
80725;SDS011;70113;59.928;10.878;2023-07-08T03:04:48;3.80;;;1.80;;
80725;SDS011;70113;59.928;10.878;2023-07-08T03:07:15;2.50;;;1.40;;
80725;SDS011;70113;59.928;10.878;2023-07-08T03:09:42;3.70;;;1.88;;
80725;SDS011;70113;59.928;10.878;2023-07-08T03:12:09;3.45;;;1.67;;
80725;SDS011;70113;59.928;10.878;2023-07-08T03:14:36;3.83;;;1.45;;
80725;SDS011;70113;59.928;10.878;2023-07-08T03:17:02;4.20;;;1.75;;
80725;SDS011;70113;59.928;10.878;2023-07-08T03:19:28;3.53;;;1.70;;
80725;SDS011;70113;59.928;10.878;2023-07-08T03:21:54;4.20;;;1.75;;
80725;SDS011;70113;59.928;10.878;2023-07-08T03:24:19;3.20;;;1.70;;
80725;SDS011;70113;59.928;10.878;2023-07-08T03:26:45;3.42;;;1.80;;
80725;SDS011;70113;59.928;10.878;2023-07-08T03:29:13;3.83;;;1.67;;
80725;SDS011;70113;59.928;10.878;2023-07-08T03:31:41;5.65;;;2.55;;
80725;SDS011;70113;59.928;10.878;2023-07-08T03:34:08;3.88;;;1.60;;
80725;SDS011;70113;59.928;10.878;2023-07-08T03:36:35;4.28;;;1.80;;
80725;SDS011;70113;59.928;10.878;2023-07-08T03:39:06;3.88;;;2.00;;
80725;SDS011;70113;59.928;10.878;2023-07-08T03:41:33;4.20;;;1.90;;
80725;SDS011;70113;59.928;10.878;2023-07-08T03:43:58;7.20;;;1.98;;
80725;SDS011;70113;59.928;10.878;2023-07-08T03:46:24;6.95;;;2.40;;
80725;SDS011;70113;59.928;10.878;2023-07-08T03:48:49;5.85;;;1.83;;
80725;SDS011;70113;59.928;10.878;2023-07-08T03:51:37;3.97;;;2.00;;
80725;SDS011;70113;59.928;10.878;2023-07-08T03:54:03;4.55;;;1.80;;
80725;SDS011;70113;59.928;10.878;2023-07-08T03:56:31;4.20;;;1.60;;
80725;SDS011;70113;59.928;10.878;2023-07-08T03:58:57;4.47;;;1.52;;
80725;SDS011;70113;59.928;10.878;2023-07-08T04:01:23;4.65;;;1.80;;
80725;SDS011;70113;59.928;10.878;2023-07-08T04:03:53;5.65;;;1.90;;
80725;SDS011;70113;59.928;10.878;2023-07-08T04:08:48;4.18;;;1.98;;
80725;SDS011;70113;59.928;10.878;2023-07-08T04:11:16;4.40;;;2.00;;
80725;SDS011;70113;59.928;10.878;2023-07-08T04:13:43;4.30;;;2.03;;
80725;SDS011;70113;59.928;10.878;2023-07-08T04:16:20;3.85;;;1.90;;
80725;SDS011;70113;59.928;10.878;2023-07-08T04:18:53;5.95;;;2.20;;
80725;SDS011;70113;59.928;10.878;2023-07-08T04:21:21;3.55;;;1.73;;
80725;SDS011;70113;59.928;10.878;2023-07-08T04:23:48;4.90;;;2.10;;
80725;SDS011;70113;59.928;10.878;2023-07-08T04:26:14;6.93;;;2.63;;
80725;SDS011;70113;59.928;10.878;2023-07-08T04:28:41;4.65;;;2.00;;
80725;SDS011;70113;59.928;10.878;2023-07-08T04:31:07;4.05;;;1.95;;
80725;SDS011;70113;59.928;10.878;2023-07-08T04:33:33;4.20;;;1.80;;
80725;SDS011;70113;59.928;10.878;2023-07-08T04:35:59;5.45;;;2.25;;
80725;SDS011;70113;59.928;10.878;2023-07-08T04:38:25;3.90;;;1.83;;
80725;SDS011;70113;59.928;10.878;2023-07-08T04:40:52;4.88;;;2.10;;
80725;SDS011;70113;59.928;10.878;2023-07-08T04:43:18;4.28;;;2.15;;
80725;SDS011;70113;59.928;10.878;2023-07-08T04:45:47;5.43;;;1.90;;
80725;SDS011;70113;59.928;10.878;2023-07-08T04:48:16;3.47;;;1.90;;
80725;SDS011;70113;59.928;10.878;2023-07-08T04:50:45;3.80;;;1.85;;
80725;SDS011;70113;59.928;10.878;2023-07-08T04:53:12;5.45;;;2.28;;
80725;SDS011;70113;59.928;10.878;2023-07-08T04:55:42;4.28;;;1.80;;
80725;SDS011;70113;59.928;10.878;2023-07-08T04:58:10;5.72;;;2.08;;
80725;SDS011;70113;59.928;10.878;2023-07-08T05:00:36;3.83;;;1.88;;
80725;SDS011;70113;59.928;10.878;2023-07-08T05:03:02;4.10;;;2.20;;
80725;SDS011;70113;59.928;10.878;2023-07-08T05:05:28;3.85;;;2.17;;
80725;SDS011;70113;59.928;10.878;2023-07-08T05:07:53;4.15;;;2.13;;
80725;SDS011;70113;59.928;10.878;2023-07-08T05:10:19;3.92;;;1.92;;
80725;SDS011;70113;59.928;10.878;2023-07-08T05:12:45;4.05;;;1.90;;
80725;SDS011;70113;59.928;10.878;2023-07-08T05:15:12;5.25;;;2.40;;
80725;SDS011;70113;59.928;10.878;2023-07-08T05:17:38;4.97;;;2.03;;
80725;SDS011;70113;59.928;10.878;2023-07-08T05:20:06;4.40;;;2.00;;
80725;SDS011;70113;59.928;10.878;2023-07-08T05:22:33;4.97;;;2.30;;
80725;SDS011;70113;59.928;10.878;2023-07-08T05:24:59;4.63;;;2.30;;
80725;SDS011;70113;59.928;10.878;2023-07-08T05:27:24;4.32;;;1.95;;
80725;SDS011;70113;59.928;10.878;2023-07-08T05:29:50;5.05;;;2.22;;
80725;SDS011;70113;59.928;10.878;2023-07-08T05:32:17;4.00;;;2.30;;
80725;SDS011;70113;59.928;10.878;2023-07-08T05:34:43;3.78;;;2.17;;
80725;SDS011;70113;59.928;10.878;2023-07-08T05:37:09;4.28;;;1.75;;
80725;SDS011;70113;59.928;10.878;2023-07-08T05:39:39;4.60;;;2.30;;
80725;SDS011;70113;59.928;10.878;2023-07-08T05:42:05;5.07;;;2.33;;
80725;SDS011;70113;59.928;10.878;2023-07-08T05:44:31;4.82;;;1.95;;
80725;SDS011;70113;59.928;10.878;2023-07-08T05:46:57;4.57;;;2.08;;
80725;SDS011;70113;59.928;10.878;2023-07-08T05:49:22;5.63;;;1.98;;
80725;SDS011;70113;59.928;10.878;2023-07-08T05:51:48;4.85;;;2.22;;
80725;SDS011;70113;59.928;10.878;2023-07-08T05:54:14;3.90;;;2.10;;
80725;SDS011;70113;59.928;10.878;2023-07-08T05:56:40;3.88;;;2.10;;
80725;SDS011;70113;59.928;10.878;2023-07-08T05:59:06;4.18;;;2.10;;
80725;SDS011;70113;59.928;10.878;2023-07-08T06:01:31;6.45;;;2.40;;
80725;SDS011;70113;59.928;10.878;2023-07-08T06:03:58;5.88;;;2.10;;
80725;SDS011;70113;59.928;10.878;2023-07-08T06:06:27;4.93;;;2.33;;
80725;SDS011;70113;59.928;10.878;2023-07-08T06:08:54;4.32;;;2.20;;
80725;SDS011;70113;59.928;10.878;2023-07-08T06:11:20;4.93;;;2.30;;
80725;SDS011;70113;59.928;10.878;2023-07-08T06:13:47;4.15;;;2.10;;
80725;SDS011;70113;59.928;10.878;2023-07-08T06:16:13;4.65;;;2.10;;
80725;SDS011;70113;59.928;10.878;2023-07-08T06:18:39;3.97;;;2.05;;
80725;SDS011;70113;59.928;10.878;2023-07-08T06:21:05;8.10;;;2.70;;
80725;SDS011;70113;59.928;10.878;2023-07-08T06:23:31;6.28;;;2.20;;
80725;SDS011;70113;59.928;10.878;2023-07-08T06:25:56;4.80;;;2.13;;
80725;SDS011;70113;59.928;10.878;2023-07-08T06:28:22;5.25;;;2.22;;
80725;SDS011;70113;59.928;10.878;2023-07-08T06:30:48;6.70;;;2.20;;
80725;SDS011;70113;59.928;10.878;2023-07-08T06:33:15;3.72;;;2.15;;
80725;SDS011;70113;59.928;10.878;2023-07-08T06:35:40;5.07;;;2.10;;
80725;SDS011;70113;59.928;10.878;2023-07-08T06:38:07;4.30;;;2.00;;
80725;SDS011;70113;59.928;10.878;2023-07-08T06:40:34;3.58;;;1.92;;
80725;SDS011;70113;59.928;10.878;2023-07-08T06:43:01;7.75;;;2.65;;
80725;SDS011;70113;59.928;10.878;2023-07-08T06:45:28;4.57;;;2.25;;
80725;SDS011;70113;59.928;10.878;2023-07-08T06:47:54;6.70;;;2.15;;
80725;SDS011;70113;59.928;10.878;2023-07-08T06:50:20;5.10;;;2.13;;
80725;SDS011;70113;59.928;10.878;2023-07-08T06:52:45;5.72;;;2.10;;
80725;SDS011;70113;59.928;10.878;2023-07-08T06:55:11;4.88;;;2.00;;
80725;SDS011;70113;59.928;10.878;2023-07-08T06:57:37;4.45;;;1.90;;
80725;SDS011;70113;59.928;10.878;2023-07-08T07:00:06;4.63;;;2.65;;
80725;SDS011;70113;59.928;10.878;2023-07-08T07:02:34;4.68;;;2.13;;
80725;SDS011;70113;59.928;10.878;2023-07-08T07:05:00;4.55;;;2.00;;
80725;SDS011;70113;59.928;10.878;2023-07-08T07:07:27;5.80;;;2.42;;
80725;SDS011;70113;59.928;10.878;2023-07-08T07:09:53;5.22;;;2.10;;
80725;SDS011;70113;59.928;10.878;2023-07-08T07:12:19;5.55;;;2.22;;
80725;SDS011;70113;59.928;10.878;2023-07-08T07:14:45;4.18;;;2.33;;
80725;SDS011;70113;59.928;10.878;2023-07-08T07:17:10;4.90;;;2.10;;
80725;SDS011;70113;59.928;10.878;2023-07-08T07:19:37;3.55;;;1.90;;
80725;SDS011;70113;59.928;10.878;2023-07-08T07:22:03;4.78;;;2.10;;
80725;SDS011;70113;59.928;10.878;2023-07-08T07:24:29;4.93;;;2.05;;
80725;SDS011;70113;59.928;10.878;2023-07-08T07:26:55;5.25;;;2.20;;
80725;SDS011;70113;59.928;10.878;2023-07-08T07:29:21;3.50;;;1.88;;
80725;SDS011;70113;59.928;10.878;2023-07-08T07:31:48;3.97;;;2.10;;
80725;SDS011;70113;59.928;10.878;2023-07-08T07:34:14;6.18;;;2.10;;
80725;SDS011;70113;59.928;10.878;2023-07-08T07:36:40;2.95;;;1.80;;
80725;SDS011;70113;59.928;10.878;2023-07-08T07:39:05;7.30;;;2.13;;
80725;SDS011;70113;59.928;10.878;2023-07-08T07:41:31;3.53;;;1.83;;
80725;SDS011;70113;59.928;10.878;2023-07-08T07:43:57;4.80;;;2.22;;
80725;SDS011;70113;59.928;10.878;2023-07-08T07:46:22;3.97;;;1.90;;
80725;SDS011;70113;59.928;10.878;2023-07-08T07:48:48;5.78;;;2.40;;
80725;SDS011;70113;59.928;10.878;2023-07-08T07:51:14;4.95;;;2.13;;
80725;SDS011;70113;59.928;10.878;2023-07-08T07:53:41;3.88;;;2.10;;
80725;SDS011;70113;59.928;10.878;2023-07-08T07:56:07;4.55;;;2.30;;
80725;SDS011;70113;59.928;10.878;2023-07-08T07:58:33;5.90;;;2.50;;
80725;SDS011;70113;59.928;10.878;2023-07-08T08:00:59;4.07;;;2.20;;
80725;SDS011;70113;59.928;10.878;2023-07-08T08:03:25;5.03;;;2.22;;
80725;SDS011;70113;59.928;10.878;2023-07-08T08:05:51;5.63;;;1.92;;
80725;SDS011;70113;59.928;10.878;2023-07-08T08:08:16;3.92;;;2.13;;
80725;SDS011;70113;59.928;10.878;2023-07-08T08:10:43;4.25;;;2.28;;
80725;SDS011;70113;59.928;10.878;2023-07-08T08:13:08;4.00;;;1.92;;
80725;SDS011;70113;59.928;10.878;2023-07-08T08:15:35;4.10;;;2.13;;
80725;SDS011;70113;59.928;10.878;2023-07-08T08:18:01;4.28;;;2.08;;
80725;SDS011;70113;59.928;10.878;2023-07-08T08:20:27;3.83;;;1.80;;
80725;SDS011;70113;59.928;10.878;2023-07-08T08:22:54;4.57;;;1.80;;
80725;SDS011;70113;59.928;10.878;2023-07-08T08:25:21;3.55;;;1.73;;
80725;SDS011;70113;59.928;10.878;2023-07-08T08:27:48;3.35;;;1.67;;
80725;SDS011;70113;59.928;10.878;2023-07-08T08:30:14;6.97;;;2.30;;
80725;SDS011;70113;59.928;10.878;2023-07-08T08:32:40;4.15;;;2.08;;
80725;SDS011;70113;59.928;10.878;2023-07-08T08:35:06;4.25;;;2.40;;
80725;SDS011;70113;59.928;10.878;2023-07-08T08:37:31;5.80;;;2.33;;
80725;SDS011;70113;59.928;10.878;2023-07-08T08:39:57;3.90;;;1.77;;
80725;SDS011;70113;59.928;10.878;2023-07-08T08:42:33;4.00;;;1.85;;
80725;SDS011;70113;59.928;10.878;2023-07-08T08:45:06;5.53;;;1.98;;
80725;SDS011;70113;59.928;10.878;2023-07-08T08:47:37;4.22;;;1.98;;
80725;SDS011;70113;59.928;10.878;2023-07-08T08:55:07;4.03;;;1.75;;
80725;SDS011;70113;59.928;10.878;2023-07-08T09:00:27;4.00;;;2.25;;
80725;SDS011;70113;59.928;10.878;2023-07-08T09:03:03;4.72;;;2.05;;
80725;SDS011;70113;59.928;10.878;2023-07-08T09:05:36;6.97;;;2.63;;
80725;SDS011;70113;59.928;10.878;2023-07-08T09:08:04;3.80;;;2.00;;
80725;SDS011;70113;59.928;10.878;2023-07-08T09:10:40;3.75;;;1.63;;
80725;SDS011;70113;59.928;10.878;2023-07-08T09:13:33;2.92;;;1.65;;
80725;SDS011;70113;59.928;10.878;2023-07-08T09:24:19;4.40;;;1.92;;
80725;SDS011;70113;59.928;10.878;2023-07-08T09:26:53;4.57;;;2.08;;
80725;SDS011;70113;59.928;10.878;2023-07-08T09:29:22;3.33;;;1.88;;
80725;SDS011;70113;59.928;10.878;2023-07-08T09:31:49;3.85;;;1.70;;
80725;SDS011;70113;59.928;10.878;2023-07-08T09:34:16;4.20;;;2.00;;
80725;SDS011;70113;59.928;10.878;2023-07-08T09:36:51;3.47;;;1.50;;
80725;SDS011;70113;59.928;10.878;2023-07-08T09:39:18;4.57;;;1.80;;
80725;SDS011;70113;59.928;10.878;2023-07-08T09:41:46;4.13;;;1.80;;
80725;SDS011;70113;59.928;10.878;2023-07-08T09:44:15;4.03;;;1.80;;
80725;SDS011;70113;59.928;10.878;2023-07-08T09:46:41;3.28;;;1.85;;
80725;SDS011;70113;59.928;10.878;2023-07-08T09:49:18;6.25;;;2.10;;
80725;SDS011;70113;59.928;10.878;2023-07-08T09:51:45;4.25;;;1.63;;
80725;SDS011;70113;59.928;10.878;2023-07-08T09:54:11;2.75;;;1.73;;
80725;SDS011;70113;59.928;10.878;2023-07-08T09:56:40;3.78;;;1.85;;
80725;SDS011;70113;59.928;10.878;2023-07-08T09:59:13;3.90;;;1.70;;
80725;SDS011;70113;59.928;10.878;2023-07-08T10:01:41;3.33;;;1.83;;
80725;SDS011;70113;59.928;10.878;2023-07-08T10:04:07;3.65;;;1.77;;
80725;SDS011;70113;59.928;10.878;2023-07-08T10:06:33;2.60;;;1.40;;
80725;SDS011;70113;59.928;10.878;2023-07-08T10:09:05;5.03;;;1.88;;
80725;SDS011;70113;59.928;10.878;2023-07-08T10:11:42;3.47;;;1.70;;
80725;SDS011;70113;59.928;10.878;2023-07-08T10:14:32;3.45;;;1.60;;
80725;SDS011;70113;59.928;10.878;2023-07-08T10:17:02;3.75;;;1.83;;
80725;SDS011;70113;59.928;10.878;2023-07-08T10:19:28;3.60;;;1.90;;
80725;SDS011;70113;59.928;10.878;2023-07-08T10:22:41;3.72;;;2.10;;
80725;SDS011;70113;59.928;10.878;2023-07-08T10:28:39;4.03;;;2.03;;
80725;SDS011;70113;59.928;10.878;2023-07-08T10:36:20;3.35;;;1.45;;
80725;SDS011;70113;59.928;10.878;2023-07-08T10:44:13;2.40;;;1.35;;
80725;SDS011;70113;59.928;10.878;2023-07-08T10:52:39;3.80;;;1.42;;
80725;SDS011;70113;59.928;10.878;2023-07-08T10:55:32;2.88;;;1.40;;
80725;SDS011;70113;59.928;10.878;2023-07-08T11:01:07;3.80;;;1.50;;
80725;SDS011;70113;59.928;10.878;2023-07-08T11:04:43;3.10;;;1.33;;
80725;SDS011;70113;59.928;10.878;2023-07-08T11:06:51;3.13;;;1.35;;
80725;SDS011;70113;59.928;10.878;2023-07-08T11:09:25;3.22;;;1.48;;
80725;SDS011;70113;59.928;10.878;2023-07-08T11:12:07;4.80;;;1.33;;
80725;SDS011;70113;59.928;10.878;2023-07-08T11:14:46;5.75;;;1.48;;
80725;SDS011;70113;59.928;10.878;2023-07-08T11:17:19;2.72;;;1.30;;
80725;SDS011;70113;59.928;10.878;2023-07-08T11:22:28;3.25;;;1.50;;
80725;SDS011;70113;59.928;10.878;2023-07-08T11:24:56;3.22;;;1.45;;
80725;SDS011;70113;59.928;10.878;2023-07-08T11:27:35;3.13;;;1.20;;
80725;SDS011;70113;59.928;10.878;2023-07-08T11:30:12;4.45;;;1.27;;
80725;SDS011;70113;59.928;10.878;2023-07-08T11:32:40;3.92;;;1.30;;
80725;SDS011;70113;59.928;10.878;2023-07-08T11:35:13;3.45;;;1.50;;
80725;SDS011;70113;59.928;10.878;2023-07-08T11:37:45;3.78;;;1.10;;
80725;SDS011;70113;59.928;10.878;2023-07-08T11:40:23;2.58;;;1.30;;
80725;SDS011;70113;59.928;10.878;2023-07-08T11:42:59;2.75;;;1.42;;
80725;SDS011;70113;59.928;10.878;2023-07-08T11:45:31;3.65;;;1.50;;
80725;SDS011;70113;59.928;10.878;2023-07-08T11:48:12;3.10;;;1.30;;
80725;SDS011;70113;59.928;10.878;2023-07-08T11:50:41;2.45;;;1.25;;
80725;SDS011;70113;59.928;10.878;2023-07-08T11:53:10;3.33;;;1.30;;
80725;SDS011;70113;59.928;10.878;2023-07-08T11:55:47;2.53;;;1.17;;
80725;SDS011;70113;59.928;10.878;2023-07-08T12:03:38;2.47;;;1.10;;
80725;SDS011;70113;59.928;10.878;2023-07-08T12:06:48;2.78;;;1.38;;
80725;SDS011;70113;59.928;10.878;2023-07-08T12:09:14;2.40;;;1.17;;
80725;SDS011;70113;59.928;10.878;2023-07-08T12:11:59;2.45;;;1.05;;
80725;SDS011;70113;59.928;10.878;2023-07-08T12:14:27;2.83;;;1.17;;
80725;SDS011;70113;59.928;10.878;2023-07-08T12:16:53;3.72;;;1.33;;
80725;SDS011;70113;59.928;10.878;2023-07-08T12:19:20;3.42;;;1.50;;
80725;SDS011;70113;59.928;10.878;2023-07-08T12:21:51;2.58;;;1.00;;
80725;SDS011;70113;59.928;10.878;2023-07-08T12:24:17;3.28;;;1.30;;
80725;SDS011;70113;59.928;10.878;2023-07-08T12:26:44;3.00;;;1.40;;
80725;SDS011;70113;59.928;10.878;2023-07-08T12:29:12;3.60;;;1.60;;
80725;SDS011;70113;59.928;10.878;2023-07-08T12:31:41;2.97;;;1.00;;
80725;SDS011;70113;59.928;10.878;2023-07-08T12:34:14;2.33;;;1.30;;
80725;SDS011;70113;59.928;10.878;2023-07-08T12:36:42;3.78;;;1.40;;
80725;SDS011;70113;59.928;10.878;2023-07-08T12:39:13;2.55;;;1.40;;
80725;SDS011;70113;59.928;10.878;2023-07-08T12:41:41;2.05;;;1.13;;
80725;SDS011;70113;59.928;10.878;2023-07-08T12:44:19;2.22;;;1.30;;
80725;SDS011;70113;59.928;10.878;2023-07-08T12:46:48;2.53;;;1.30;;
80725;SDS011;70113;59.928;10.878;2023-07-08T12:49:16;2.22;;;1.10;;
80725;SDS011;70113;59.928;10.878;2023-07-08T12:51:42;2.63;;;1.27;;
80725;SDS011;70113;59.928;10.878;2023-07-08T12:54:10;3.67;;;1.63;;
80725;SDS011;70113;59.928;10.878;2023-07-08T12:56:37;2.88;;;1.40;;
80725;SDS011;70113;59.928;10.878;2023-07-08T12:59:03;2.15;;;1.20;;
80725;SDS011;70113;59.928;10.878;2023-07-08T13:01:30;3.10;;;1.70;;
80725;SDS011;70113;59.928;10.878;2023-07-08T13:04:09;3.20;;;1.40;;
80725;SDS011;70113;59.928;10.878;2023-07-08T13:06:36;3.53;;;1.50;;
80725;SDS011;70113;59.928;10.878;2023-07-08T13:11:49;2.85;;;1.35;;
80725;SDS011;70113;59.928;10.878;2023-07-08T13:14:17;3.10;;;1.27;;
80725;SDS011;70113;59.928;10.878;2023-07-08T13:16:45;2.65;;;1.40;;
80725;SDS011;70113;59.928;10.878;2023-07-08T13:19:11;3.17;;;1.10;;
80725;SDS011;70113;59.928;10.878;2023-07-08T13:21:39;3.15;;;1.30;;
80725;SDS011;70113;59.928;10.878;2023-07-08T13:24:11;3.45;;;1.42;;
80725;SDS011;70113;59.928;10.878;2023-07-08T13:29:15;3.55;;;1.48;;
80725;SDS011;70113;59.928;10.878;2023-07-08T13:31:45;3.10;;;1.33;;
80725;SDS011;70113;59.928;10.878;2023-07-08T13:34:19;3.00;;;1.50;;
80725;SDS011;70113;59.928;10.878;2023-07-08T13:36:49;3.50;;;1.42;;
80725;SDS011;70113;59.928;10.878;2023-07-08T13:39:19;3.45;;;1.60;;
80725;SDS011;70113;59.928;10.878;2023-07-08T13:41:49;2.70;;;1.38;;
80725;SDS011;70113;59.928;10.878;2023-07-08T13:44:15;2.78;;;1.48;;
80725;SDS011;70113;59.928;10.878;2023-07-08T13:49:25;3.88;;;1.52;;
80725;SDS011;70113;59.928;10.878;2023-07-08T13:52:04;3.42;;;1.48;;
80725;SDS011;70113;59.928;10.878;2023-07-08T13:54:41;3.35;;;1.60;;
80725;SDS011;70113;59.928;10.878;2023-07-08T13:57:15;5.00;;;1.65;;
80725;SDS011;70113;59.928;10.878;2023-07-08T13:59:43;2.88;;;1.33;;
80725;SDS011;70113;59.928;10.878;2023-07-08T14:02:17;2.67;;;1.60;;
80725;SDS011;70113;59.928;10.878;2023-07-08T14:04:49;2.22;;;1.30;;
80725;SDS011;70113;59.928;10.878;2023-07-08T14:07:16;3.78;;;1.80;;
80725;SDS011;70113;59.928;10.878;2023-07-08T14:09:45;3.95;;;1.67;;
80725;SDS011;70113;59.928;10.878;2023-07-08T14:12:11;3.50;;;1.60;;
80725;SDS011;70113;59.928;10.878;2023-07-08T14:14:36;4.13;;;1.40;;
80725;SDS011;70113;59.928;10.878;2023-07-08T14:17:02;3.80;;;1.88;;
80725;SDS011;70113;59.928;10.878;2023-07-08T14:19:32;4.72;;;1.60;;
80725;SDS011;70113;59.928;10.878;2023-07-08T14:24:40;3.97;;;1.40;;
80725;SDS011;70113;59.928;10.878;2023-07-08T14:27:10;2.97;;;1.60;;
80725;SDS011;70113;59.928;10.878;2023-07-08T14:29:38;2.58;;;1.17;;
80725;SDS011;70113;59.928;10.878;2023-07-08T14:32:04;4.20;;;1.58;;
80725;SDS011;70113;59.928;10.878;2023-07-08T14:34:36;2.65;;;1.38;;
80725;SDS011;70113;59.928;10.878;2023-07-08T14:37:02;3.97;;;1.70;;
80725;SDS011;70113;59.928;10.878;2023-07-08T14:39:30;2.72;;;1.50;;
80725;SDS011;70113;59.928;10.878;2023-07-08T14:41:56;4.65;;;1.50;;
80725;SDS011;70113;59.928;10.878;2023-07-08T14:46:55;3.58;;;1.60;;
80725;SDS011;70113;59.928;10.878;2023-07-08T14:49:22;4.65;;;1.45;;
80725;SDS011;70113;59.928;10.878;2023-07-08T14:51:49;3.55;;;1.52;;
80725;SDS011;70113;59.928;10.878;2023-07-08T14:54:17;3.55;;;1.60;;
80725;SDS011;70113;59.928;10.878;2023-07-08T14:56:43;3.97;;;1.98;;
80725;SDS011;70113;59.928;10.878;2023-07-08T14:59:12;3.25;;;1.40;;
80725;SDS011;70113;59.928;10.878;2023-07-08T15:01:41;3.72;;;1.73;;
80725;SDS011;70113;59.928;10.878;2023-07-08T15:04:11;3.50;;;1.60;;
80725;SDS011;70113;59.928;10.878;2023-07-08T15:06:39;3.30;;;1.73;;
80725;SDS011;70113;59.928;10.878;2023-07-08T15:09:05;4.00;;;1.58;;
80725;SDS011;70113;59.928;10.878;2023-07-08T15:11:31;4.25;;;1.60;;
80725;SDS011;70113;59.928;10.878;2023-07-08T15:13:57;2.45;;;1.40;;
80725;SDS011;70113;59.928;10.878;2023-07-08T15:16:24;3.50;;;1.40;;
80725;SDS011;70113;59.928;10.878;2023-07-08T15:18:50;2.63;;;1.30;;
80725;SDS011;70113;59.928;10.878;2023-07-08T15:21:16;3.50;;;1.48;;
80725;SDS011;70113;59.928;10.878;2023-07-08T15:23:42;3.08;;;1.58;;
80725;SDS011;70113;59.928;10.878;2023-07-08T15:26:11;3.15;;;1.58;;
80725;SDS011;70113;59.928;10.878;2023-07-08T15:28:39;3.78;;;1.50;;
80725;SDS011;70113;59.928;10.878;2023-07-08T15:31:08;3.00;;;1.30;;
80725;SDS011;70113;59.928;10.878;2023-07-08T15:33:37;3.45;;;1.40;;
80725;SDS011;70113;59.928;10.878;2023-07-08T15:36:03;2.65;;;1.40;;
80725;SDS011;70113;59.928;10.878;2023-07-08T15:38:29;3.28;;;1.45;;
80725;SDS011;70113;59.928;10.878;2023-07-08T15:40:54;3.85;;;1.25;;
80725;SDS011;70113;59.928;10.878;2023-07-08T15:43:20;3.20;;;1.70;;
80725;SDS011;70113;59.928;10.878;2023-07-08T15:45:46;2.28;;;1.30;;
80725;SDS011;70113;59.928;10.878;2023-07-08T15:48:12;3.42;;;1.60;;
80725;SDS011;70113;59.928;10.878;2023-07-08T15:50:39;4.82;;;1.40;;
80725;SDS011;70113;59.928;10.878;2023-07-08T15:53:06;3.70;;;1.50;;